createdAt,value
2019-05-09T03:02:38.453Z,9.40
2019-05-09T03:05:08.814Z,9.30
2019-05-09T03:07:49.917Z,9.30
2019-05-09T03:10:19.451Z,9.30
2019-05-09T03:12:50.161Z,9.20
2019-05-09T03:15:18.743Z,9.20
2019-05-09T03:17:49.434Z,9.20
2019-05-09T03:20:23.683Z,9.10
2019-05-09T03:22:52.267Z,9.10
2019-05-09T03:25:20.824Z,9.00
2019-05-09T03:27:52.815Z,8.90
2019-05-09T03:30:29.014Z,8.90
2019-05-09T03:32:59.545Z,8.80
2019-05-09T03:35:27.592Z,8.80
2019-05-09T03:38:07.840Z,8.80
2019-05-09T03:40:37.713Z,8.80
2019-05-09T03:43:08.019Z,8.80
2019-05-09T03:45:43.443Z,8.70
2019-05-09T03:48:18.303Z,8.70
2019-05-09T03:50:48.736Z,8.70
2019-05-09T03:53:18.444Z,8.70
2019-05-09T03:55:48.175Z,8.60
2019-05-09T03:58:18.991Z,8.50
2019-05-09T04:00:47.999Z,8.50
2019-05-09T04:03:19.877Z,8.50
2019-05-09T04:05:56.663Z,8.50
2019-05-09T04:08:20.296Z,8.60
2019-05-09T04:10:52.610Z,8.60
2019-05-09T04:13:23.647Z,8.70
2019-05-09T04:15:52.218Z,8.70
2019-05-09T04:18:20.777Z,8.60
2019-05-09T04:20:49.352Z,8.60
2019-05-09T04:23:18.688Z,8.60
2019-05-09T04:26:00.290Z,8.70
2019-05-09T04:28:28.846Z,8.60
2019-05-09T04:30:58.227Z,8.60
2019-05-09T04:33:27.919Z,8.60
2019-05-09T04:35:57.917Z,8.60
2019-05-09T04:38:27.914Z,8.60
2019-05-09T04:40:58.344Z,8.60
2019-05-09T04:43:35.322Z,8.60
2019-05-09T04:45:59.894Z,8.60
2019-05-09T04:48:32.463Z,8.50
2019-05-09T04:51:02.175Z,8.40
2019-05-09T04:53:30.794Z,8.40
2019-05-09T04:56:03.740Z,8.40
2019-05-09T04:58:32.318Z,8.50
2019-05-09T05:01:19.780Z,8.50
2019-05-09T05:03:49.951Z,8.50
2019-05-09T05:06:20.703Z,8.60
2019-05-09T05:08:49.139Z,8.60
2019-05-09T05:11:17.982Z,8.70
2019-05-09T05:13:48.124Z,8.60
2019-05-09T05:16:18.438Z,8.70
2019-05-09T05:18:47.799Z,8.80
2019-05-09T05:21:20.008Z,8.90
2019-05-09T05:24:18.611Z,8.90
2019-05-09T05:26:48.485Z,9.00
2019-05-09T05:29:17.859Z,9.10
2019-05-09T05:31:52.041Z,9.20
2019-05-09T05:34:37.754Z,9.20
2019-05-09T05:37:07.530Z,9.30
2019-05-09T05:39:37.504Z,9.40
2019-05-09T05:42:08.291Z,9.40
2019-05-09T05:44:38.596Z,9.40
2019-05-09T05:47:18.045Z,9.50
2019-05-09T05:49:48.743Z,9.60
2019-05-09T05:52:18.540Z,9.60
2019-05-09T05:54:47.774Z,9.60
2019-05-09T05:57:17.731Z,9.70
2019-05-09T05:59:48.188Z,9.70
2019-05-09T06:02:17.757Z,9.80
2019-05-09T06:04:48.654Z,9.90
2019-05-09T06:07:18.444Z,9.90
2019-05-09T06:09:48.158Z,9.90
2019-05-09T06:12:18.481Z,10.00
2019-05-09T06:14:48.069Z,10.10
2019-05-09T06:17:18.056Z,10.20
2019-05-09T06:19:48.191Z,10.20
2019-05-09T06:22:18.272Z,10.30
2019-05-09T06:24:47.854Z,10.40
2019-05-09T06:27:18.277Z,10.40
2019-05-09T06:29:47.793Z,10.50
2019-05-09T06:32:18.798Z,10.60
2019-05-09T06:34:47.756Z,10.60
2019-05-09T06:37:18.388Z,10.60
2019-05-09T06:39:48.646Z,10.70
2019-05-09T06:42:18.277Z,10.80
2019-05-09T06:44:59.176Z,10.90
2019-05-09T06:47:33.629Z,10.90
2019-05-09T06:50:07.794Z,11.00
2019-05-09T06:52:37.578Z,11.10
2019-05-09T06:55:08.720Z,11.10
2019-05-09T06:57:42.223Z,11.20
2019-05-09T07:00:12.451Z,11.30
2019-05-09T07:02:47.910Z,11.30
2019-05-09T07:05:25.835Z,11.40
2019-05-09T07:08:04.299Z,11.50
2019-05-09T07:10:32.862Z,11.70
2019-05-09T07:13:01.447Z,11.70
2019-05-09T07:15:30.012Z,11.80
2019-05-09T07:17:58.605Z,11.90
2019-05-09T07:20:28.461Z,11.90
2019-05-09T07:22:58.275Z,11.90
2019-05-09T07:25:58.266Z,12.00
2019-05-09T07:28:28.323Z,12.00
2019-05-09T07:31:11.718Z,12.00
2019-05-09T07:33:59.039Z,12.10
2019-05-09T07:36:27.890Z,12.20
2019-05-09T07:38:58.242Z,12.30
2019-05-09T07:41:28.211Z,12.40
2019-05-09T07:43:58.248Z,12.50
2019-05-09T07:46:29.275Z,12.70
2019-05-09T07:48:58.437Z,12.70
2019-05-09T07:51:27.614Z,12.80
2019-05-09T07:53:58.670Z,12.90
2019-05-09T07:56:28.498Z,13.10
2019-05-09T07:58:58.545Z,13.30
2019-05-09T08:01:28.088Z,13.40
2019-05-09T08:03:58.438Z,13.80
2019-05-09T08:06:28.655Z,14.70
2019-05-09T08:08:58.322Z,15.20
2019-05-09T08:11:28.449Z,15.40
2019-05-09T08:13:57.645Z,15.40
2019-05-09T08:16:27.929Z,15.30
2019-05-09T08:18:57.807Z,15.80
2019-05-09T08:21:27.677Z,16.80
2019-05-09T08:23:57.869Z,17.30
2019-05-09T08:26:29.759Z,17.80
2019-05-09T08:28:58.354Z,18.20
2019-05-09T08:31:28.192Z,18.70
2019-05-09T08:33:59.312Z,18.80
2019-05-09T08:36:28.180Z,18.50
2019-05-09T08:38:58.672Z,18.80
2019-05-09T08:41:29.100Z,19.10
2019-05-09T08:43:57.745Z,19.20
2019-05-09T08:46:28.648Z,19.40
2019-05-09T08:48:57.593Z,19.40
2019-05-09T08:52:02.778Z,19.80
2019-05-09T08:54:33.682Z,19.90
2019-05-09T08:57:02.255Z,19.70
2019-05-09T08:59:30.866Z,19.70
2019-05-09T09:02:12.346Z,20.00
2019-05-09T09:04:29.839Z,19.70
2019-05-09T09:06:58.399Z,18.60
2019-05-09T09:09:28.580Z,18.70
2019-05-09T09:11:58.304Z,18.70
2019-05-09T09:14:27.970Z,18.90
2019-05-09T09:16:57.619Z,18.20
2019-05-09T09:19:28.022Z,18.40
2019-05-09T09:22:00.380Z,19.00
2019-05-09T09:24:28.366Z,19.70
2019-05-09T09:26:57.553Z,19.60
2019-05-09T09:29:28.297Z,20.20
2019-05-09T09:31:57.686Z,20.50
2019-05-09T09:34:27.742Z,20.50
2019-05-09T09:37:03.039Z,19.40
2019-05-09T09:39:27.617Z,18.70
2019-05-09T09:41:58.649Z,18.40
2019-05-09T09:44:28.748Z,18.50
2019-05-09T09:46:58.162Z,18.40
2019-05-09T09:49:29.328Z,17.90
2019-05-09T09:51:58.211Z,17.90
2019-05-09T09:54:28.102Z,18.40
2019-05-09T09:56:58.553Z,19.10
2019-05-09T09:59:38.596Z,19.50
2019-05-09T10:02:10.309Z,19.00
2019-05-09T10:04:38.143Z,18.60
2019-05-09T10:07:08.885Z,17.90
2019-05-09T10:09:37.007Z,17.20
2019-05-09T10:12:05.566Z,16.70
2019-05-09T10:14:37.748Z,16.40
2019-05-09T10:17:17.901Z,16.20
2019-05-09T10:20:11.250Z,16.00
2019-05-09T10:22:46.457Z,16.00
2019-05-09T10:25:10.131Z,16.00
2019-05-09T10:27:38.846Z,15.80
2019-05-09T10:30:09.095Z,15.80
2019-05-09T10:32:38.441Z,15.70
2019-05-09T10:35:08.728Z,15.70
2019-05-09T10:37:39.256Z,15.70
2019-05-09T10:40:07.823Z,15.60
2019-05-09T10:42:50.079Z,15.40
2019-05-09T10:45:57.884Z,15.30
2019-05-09T10:48:28.302Z,15.10
2019-05-09T10:51:04.309Z,14.80
2019-05-09T10:53:28.424Z,14.50
2019-05-09T10:55:57.446Z,14.40
2019-05-09T10:58:28.019Z,14.50
2019-05-09T11:00:58.649Z,14.50
2019-05-09T11:03:27.067Z,14.30
2019-05-09T11:05:57.818Z,14.10
2019-05-09T11:08:28.467Z,13.00
2019-05-09T11:10:58.014Z,12.30
2019-05-09T11:13:28.729Z,11.60
2019-05-09T11:15:58.265Z,11.10
2019-05-09T11:18:28.635Z,10.70
2019-05-09T11:20:58.099Z,10.50
2019-05-09T11:23:29.097Z,10.50
2019-05-09T11:25:58.061Z,10.50
2019-05-09T11:28:28.571Z,10.50
2019-05-09T11:30:58.359Z,10.60
2019-05-09T11:33:27.922Z,10.70
2019-05-09T11:35:58.131Z,10.70
2019-05-09T11:38:35.268Z,10.90
2019-05-09T11:40:58.114Z,11.00
2019-05-09T11:43:29.692Z,11.20
2019-05-09T11:45:58.631Z,11.30
2019-05-09T11:48:28.369Z,11.40
2019-05-09T11:50:58.301Z,11.50
2019-05-09T11:53:28.842Z,11.60
2019-05-09T11:55:57.895Z,11.70
2019-05-09T11:58:27.985Z,11.90
2019-05-09T12:00:56.703Z,12.10
2019-05-09T12:03:25.267Z,12.00
2019-05-09T12:05:54.006Z,12.10
2019-05-09T12:08:22.574Z,12.10
2019-05-09T12:10:51.140Z,12.00
2019-05-09T12:13:19.719Z,12.10
2019-05-09T12:15:48.955Z,12.20
2019-05-09T12:18:17.750Z,12.40
2019-05-09T12:20:48.295Z,13.10
2019-05-09T12:23:19.935Z,13.70
2019-05-09T12:25:47.714Z,14.20
2019-05-09T12:28:18.975Z,14.80
2019-05-09T12:30:48.956Z,15.30
2019-05-09T12:33:18.794Z,15.70
2019-05-09T12:35:47.959Z,16.10
2019-05-09T12:38:18.076Z,16.50
2019-05-09T12:40:48.195Z,16.70
2019-05-09T12:43:18.577Z,16.80
2019-05-09T12:45:47.936Z,16.70
2019-05-09T12:48:19.420Z,16.90
2019-05-09T12:50:48.899Z,16.60
2019-05-09T12:53:18.891Z,16.10
2019-05-09T12:55:49.705Z,15.70
2019-05-09T12:58:27.880Z,15.60
2019-05-09T13:00:58.418Z,15.90
2019-05-09T13:03:27.891Z,15.70
2019-05-09T13:05:57.520Z,15.50
2019-05-09T13:08:27.837Z,15.40
2019-05-09T13:10:58.383Z,15.60
2019-05-09T13:13:30.248Z,15.60
2019-05-09T13:16:14.333Z,15.60
2019-05-09T13:19:02.694Z,15.80
2019-05-09T13:21:32.968Z,16.00
2019-05-09T13:24:02.123Z,16.50
2019-05-09T13:26:30.913Z,16.90
2019-05-09T13:28:59.473Z,17.20
2019-05-09T13:31:29.546Z,17.30
2019-05-09T13:33:58.664Z,17.30
2019-05-09T13:36:28.583Z,17.00
2019-05-09T13:39:04.330Z,17.00
2019-05-09T13:41:27.586Z,16.90
2019-05-09T13:43:59.284Z,16.80
2019-05-09T13:46:28.325Z,16.40
2019-05-09T13:49:08.349Z,16.50
2019-05-09T13:51:27.237Z,16.40
2019-05-09T13:53:59.293Z,16.50
2019-05-09T13:56:28.106Z,16.60
2019-05-09T13:58:58.107Z,16.90
2019-05-09T14:01:27.015Z,17.00
2019-05-09T14:03:57.740Z,16.90
2019-05-09T14:06:27.757Z,16.70
2019-05-09T14:08:59.389Z,16.80
2019-05-09T14:11:29.179Z,17.10
2019-05-09T14:13:57.638Z,16.80
2019-05-09T14:16:28.788Z,16.70
2019-05-09T14:19:03.993Z,16.50
2019-05-09T14:21:29.858Z,16.30
2019-05-09T14:24:10.941Z,16.30
2019-05-09T14:26:27.926Z,16.40
2019-05-09T14:28:58.237Z,16.50
2019-05-09T14:31:31.765Z,16.60
2019-05-09T14:33:57.333Z,16.50
2019-05-09T14:36:27.797Z,16.40
2019-05-09T14:38:58.089Z,16.60
2019-05-09T14:41:27.729Z,16.70
2019-05-09T14:43:56.625Z,16.60
2019-05-09T14:46:25.500Z,16.70
2019-05-09T14:48:54.068Z,16.90
2019-05-09T14:51:22.631Z,16.90
2019-05-09T14:53:51.232Z,16.70
2019-05-09T14:56:20.131Z,16.60
2019-05-09T14:58:48.696Z,16.40
2019-05-09T15:01:19.357Z,16.30
2019-05-09T15:03:48.625Z,16.40
2019-05-09T15:06:18.261Z,16.20
2019-05-09T15:08:48.238Z,16.10
2019-05-09T15:11:18.222Z,16.00
2019-05-09T15:13:47.808Z,15.90
2019-05-09T15:16:18.500Z,15.80
2019-05-09T15:18:48.651Z,15.70
2019-05-09T15:21:19.149Z,15.70
2019-05-09T15:23:48.264Z,15.80
2019-05-09T15:26:17.714Z,15.70
2019-05-09T15:28:48.394Z,15.70
2019-05-09T15:31:18.297Z,15.70
2019-05-09T15:33:48.656Z,15.70
2019-05-09T15:36:19.239Z,15.80
2019-05-09T15:38:48.644Z,15.80
2019-05-09T15:41:18.420Z,15.80
2019-05-09T15:43:48.522Z,15.80
2019-05-09T15:46:32.750Z,15.90
2019-05-09T15:49:01.723Z,15.90
2019-05-09T15:51:32.214Z,15.90
2019-05-09T15:54:02.171Z,15.90
2019-05-09T15:56:31.023Z,15.90
2019-05-09T15:58:59.588Z,15.90
2019-05-09T16:01:28.188Z,15.70
2019-05-09T16:03:57.148Z,15.50
2019-05-09T16:06:32.616Z,15.30
2019-05-09T16:08:58.591Z,14.90
2019-05-09T16:11:28.570Z,14.00
2019-05-09T16:13:57.316Z,13.30
2019-05-09T16:16:28.464Z,12.90
2019-05-09T16:18:58.267Z,12.40
2019-05-09T16:21:27.820Z,12.10
2019-05-09T16:23:59.040Z,12.00
2019-05-09T16:26:28.931Z,11.90
2019-05-09T16:28:58.154Z,12.00
2019-05-09T16:31:27.867Z,11.90
2019-05-09T16:33:58.162Z,12.00
2019-05-09T16:36:28.190Z,11.90
2019-05-09T16:38:58.444Z,12.00
2019-05-09T16:41:27.977Z,12.00
2019-05-09T16:43:58.358Z,12.10
2019-05-09T16:46:28.617Z,12.10
2019-05-09T16:48:58.165Z,12.20
2019-05-09T16:51:28.568Z,12.30
2019-05-09T16:53:58.421Z,12.40
2019-05-09T16:56:28.717Z,12.40
2019-05-09T16:58:57.887Z,12.50
2019-05-09T17:01:28.362Z,12.50
2019-05-09T17:03:57.531Z,12.60
2019-05-09T17:06:27.509Z,12.60
2019-05-09T17:08:58.222Z,12.60
2019-05-09T17:11:27.811Z,12.70
2019-05-09T17:13:58.338Z,12.80
2019-05-09T17:16:28.489Z,12.80
2019-05-09T17:18:58.189Z,12.80
2019-05-09T17:21:45.158Z,12.90
2019-05-09T17:24:16.379Z,12.90
2019-05-09T17:26:44.935Z,12.90
2019-05-09T17:29:13.821Z,12.90
2019-05-09T17:31:42.382Z,12.80
2019-05-09T17:34:10.954Z,12.70
2019-05-09T17:36:39.567Z,12.70
2019-05-09T17:39:08.154Z,12.60
2019-05-09T17:41:37.974Z,12.60
2019-05-09T17:44:07.676Z,12.60
2019-05-09T17:46:38.465Z,12.70
2019-05-09T17:49:08.244Z,12.70
2019-05-09T17:51:37.129Z,12.70
2019-05-09T17:54:08.115Z,12.60
2019-05-09T17:56:37.904Z,12.60
2019-05-09T17:59:08.321Z,12.60
2019-05-09T18:01:36.582Z,12.60
2019-05-09T18:04:05.143Z,12.60
2019-05-09T18:06:33.739Z,12.60
2019-05-09T18:09:02.307Z,12.60
2019-05-09T18:11:30.870Z,12.60
2019-05-09T18:13:59.466Z,12.60
2019-05-09T18:16:28.603Z,12.60
2019-05-09T18:18:58.700Z,12.60
2019-05-09T18:21:28.338Z,12.60
2019-05-09T18:23:58.658Z,12.60
2019-05-09T18:26:27.597Z,12.50
2019-05-09T18:28:59.434Z,12.50
2019-05-09T18:31:33.004Z,12.40
2019-05-09T18:34:03.495Z,12.40
2019-05-09T18:36:32.078Z,12.40
2019-05-09T18:39:00.738Z,12.40
2019-05-09T18:41:29.323Z,12.40
2019-05-09T18:43:57.887Z,12.40
2019-05-09T18:46:28.063Z,12.40
2019-05-09T18:48:56.830Z,12.30
2019-05-09T18:51:28.484Z,12.40
2019-05-09T18:53:55.722Z,12.40
2019-05-09T18:56:24.319Z,12.30
2019-05-09T18:58:53.811Z,12.30
2019-05-09T19:01:22.463Z,12.40
2019-05-09T19:03:51.059Z,12.40
2019-05-09T19:06:20.269Z,12.40
2019-05-09T19:08:48.835Z,12.40
2019-05-09T19:11:17.487Z,12.40
2019-05-09T19:13:46.079Z,12.40
2019-05-09T19:16:39.791Z,12.40
2019-05-09T19:19:36.735Z,12.40
2019-05-09T19:22:20.477Z,12.40
2019-05-09T19:24:35.793Z,12.40
2019-05-09T19:27:04.359Z,12.40
2019-05-09T19:29:33.055Z,12.40
2019-05-09T19:32:01.619Z,12.50
2019-05-09T19:34:30.267Z,12.50
2019-05-09T19:36:58.879Z,12.50
2019-05-09T19:39:27.750Z,12.50
2019-05-09T19:41:56.310Z,12.50
2019-05-09T19:44:24.923Z,12.50
2019-05-09T19:46:53.493Z,12.50
2019-05-09T19:49:22.054Z,12.40
2019-05-09T19:51:50.974Z,12.30
2019-05-09T19:54:19.539Z,12.20
2019-05-09T19:56:48.110Z,12.20
2019-05-09T19:59:16.770Z,12.20
2019-05-09T20:01:45.334Z,12.20
2019-05-09T20:04:13.901Z,12.20
2019-05-09T20:06:42.486Z,12.20
2019-05-09T20:09:20.890Z,12.20
2019-05-09T20:12:11.424Z,12.20
2019-05-09T20:14:46.179Z,12.20
2019-05-09T20:17:14.999Z,12.10
2019-05-09T20:19:43.565Z,12.10
2019-05-09T20:22:12.157Z,12.10
2019-05-09T20:24:40.759Z,12.00
2019-05-09T20:27:09.942Z,12.10
2019-05-09T20:29:38.501Z,12.10
2019-05-09T20:32:07.090Z,12.10
2019-05-09T20:34:35.655Z,12.10
2019-05-09T20:37:04.216Z,12.10
2019-05-09T20:39:32.993Z,12.10
2019-05-09T20:42:01.754Z,12.20
2019-05-09T20:44:30.500Z,12.20
2019-05-09T20:46:59.268Z,12.20
2019-05-09T20:49:28.012Z,12.10
2019-05-09T20:51:56.754Z,12.00
2019-05-09T20:54:25.529Z,11.90
2019-05-09T20:56:54.339Z,11.80
2019-05-09T20:59:23.078Z,11.70
2019-05-09T21:01:51.850Z,11.70
2019-05-09T21:04:20.599Z,11.70
2019-05-09T21:06:49.355Z,11.70
2019-05-09T21:09:18.142Z,11.60
2019-05-09T21:11:46.896Z,11.60
2019-05-09T21:14:15.959Z,11.60
2019-05-09T21:16:44.722Z,11.60
2019-05-09T21:19:13.468Z,11.60
2019-05-09T21:21:42.215Z,11.60
2019-05-09T21:24:11.083Z,11.60
2019-05-09T21:26:39.827Z,11.60
2019-05-09T21:29:08.578Z,11.60
2019-05-09T21:31:37.347Z,11.60
2019-05-09T21:34:06.089Z,11.50
2019-05-09T21:36:34.646Z,11.50
2019-05-09T21:39:03.910Z,11.50
2019-05-09T21:41:32.470Z,11.40
2019-05-09T21:44:01.319Z,11.40
2019-05-09T21:46:29.927Z,11.40
2019-05-09T21:48:58.491Z,11.40
2019-05-09T21:51:27.058Z,11.40
2019-05-09T21:53:55.649Z,11.40
2019-05-09T21:56:24.221Z,11.40
2019-05-09T21:58:52.777Z,11.40
2019-05-09T22:58:03.911Z,11.20
2019-05-09T23:00:32.566Z,11.30
2019-05-09T23:03:01.459Z,11.30
2019-05-09T23:05:30.107Z,11.20
2019-05-09T23:07:58.677Z,11.30
2019-05-09T23:10:27.242Z,11.30
2019-05-09T23:12:55.955Z,11.30
2019-05-09T23:15:24.548Z,11.20
2019-05-09T23:17:53.098Z,11.30
2019-05-09T23:20:39.708Z,11.30
2019-05-09T23:23:39.839Z,11.30
2019-05-09T23:26:08.708Z,11.30
2019-05-09T23:28:37.871Z,11.30
2019-05-09T23:31:10.139Z,11.30
2019-05-09T23:33:40.616Z,11.30
2019-05-09T23:36:09.172Z,11.20
2019-05-09T23:38:56.844Z,11.20
2019-05-09T23:41:25.510Z,11.20
2019-05-09T23:43:54.823Z,11.10
2019-05-09T23:46:23.558Z,11.10
2019-05-09T23:48:52.127Z,11.10
2019-05-09T23:51:22.072Z,11.10
2019-05-09T23:53:52.505Z,11.10
2019-05-09T23:56:40.155Z,11.10
2019-05-09T23:59:26.955Z,11.00
